createdAt,value
2022-11-14T00:00:51.721Z,19.38
2022-11-14T00:03:38.203Z,21.83
2022-11-14T00:06:26.138Z,20.13
2022-11-14T00:09:12.390Z,21.35
2022-11-14T00:11:58.873Z,20.48
2022-11-14T00:14:45.322Z,21.63
2022-11-14T00:17:31.873Z,22.38
2022-11-14T00:20:18.227Z,21.38
2022-11-14T00:23:05.830Z,21.63
2022-11-14T00:25:52.930Z,22.42
2022-11-14T00:28:39.273Z,22.88
2022-11-14T00:31:25.421Z,23.35
2022-11-14T00:34:11.879Z,22.95
2022-11-14T00:36:58.551Z,21.45
2022-11-14T00:39:46.371Z,21.90
2022-11-14T00:42:32.768Z,22.17
2022-11-14T00:45:19.013Z,21.83
2022-11-14T00:48:05.838Z,22.27
2022-11-14T00:50:52.006Z,22.27
2022-11-14T00:53:38.529Z,22.67
2022-11-14T00:56:26.559Z,22.63
2022-11-14T00:59:13.469Z,23.48
2022-11-14T01:01:59.533Z,22.40
2022-11-14T01:04:45.955Z,23.23
2022-11-14T01:07:32.485Z,22.45
2022-11-14T01:10:18.785Z,22.17
2022-11-14T01:13:06.725Z,22.33
2022-11-14T01:15:54.876Z,21.80
2022-11-14T01:18:42.117Z,21.55
2022-11-14T01:21:28.281Z,21.80
2022-11-14T01:24:14.829Z,21.75
2022-11-14T01:27:01.089Z,21.33
2022-11-14T01:29:49.592Z,22.27
2022-11-14T01:32:36.213Z,22.15
2022-11-14T01:35:22.888Z,21.67
2022-11-14T01:38:14.704Z,21.85
2022-11-14T01:41:01.274Z,22.98
2022-11-14T01:43:47.528Z,22.98
2022-11-14T01:46:38.246Z,23.40
2022-11-14T01:49:27.781Z,22.70
2022-11-14T01:52:16.963Z,23.25
2022-11-14T01:55:07.374Z,23.45
2022-11-14T01:57:53.826Z,23.63
2022-11-14T02:00:41.013Z,23.83
2022-11-14T02:03:28.454Z,24.05
2022-11-14T02:06:20.494Z,25.40
2022-11-14T02:09:08.723Z,25.45
2022-11-14T02:11:58.027Z,26.50
2022-11-14T02:14:46.358Z,27.10
2022-11-14T02:17:33.548Z,26.38
2022-11-14T02:20:22.985Z,28.23
2022-11-14T02:23:09.754Z,27.45
2022-11-14T02:25:56.651Z,26.75
2022-11-14T02:28:43.055Z,28.30
2022-11-14T02:31:29.322Z,27.42
2022-11-14T02:34:19.770Z,29.88
2022-11-14T02:37:07.926Z,28.02
2022-11-14T02:39:54.301Z,27.33
2022-11-14T02:42:40.782Z,26.25
2022-11-14T02:45:27.986Z,28.60
2022-11-14T02:48:14.122Z,26.35
2022-11-14T02:51:00.726Z,24.55
2022-11-14T02:53:48.715Z,26.33
2022-11-14T02:56:34.964Z,24.50
2022-11-14T02:59:21.309Z,24.00
2022-11-14T03:02:07.913Z,24.70
2022-11-14T03:04:54.745Z,24.08
2022-11-14T03:07:41.226Z,24.70
2022-11-14T03:10:28.835Z,24.63
2022-11-14T03:13:15.292Z,24.58
2022-11-14T03:16:07.033Z,24.25
2022-11-14T03:18:53.285Z,25.38
2022-11-14T03:21:39.685Z,24.10
2022-11-14T03:24:26.184Z,26.00
2022-11-14T03:27:14.025Z,25.15
2022-11-14T03:30:00.546Z,25.33
2022-11-14T03:32:47.147Z,25.92
2022-11-14T03:35:33.584Z,24.48
2022-11-14T03:38:22.924Z,25.88
2022-11-14T03:41:09.553Z,25.02
2022-11-14T03:43:57.127Z,25.83
2022-11-14T03:46:43.557Z,24.90
2022-11-14T03:49:29.718Z,26.00
2022-11-14T03:52:16.208Z,26.48
2022-11-14T03:55:02.697Z,25.73
2022-11-14T03:57:49.130Z,25.23
2022-11-14T04:00:37.332Z,27.05
2022-11-14T04:03:23.807Z,25.00
2022-11-14T04:06:10.176Z,26.33
2022-11-14T04:08:57.326Z,25.00
2022-11-14T04:11:43.452Z,25.15
2022-11-14T04:14:29.870Z,24.80
2022-11-14T04:17:17.536Z,24.55
2022-11-14T04:20:04.171Z,23.75
2022-11-14T04:22:50.577Z,23.73
2022-11-14T04:25:36.672Z,23.38
2022-11-14T04:28:23.117Z,24.38
2022-11-14T04:31:09.565Z,25.02
2022-11-14T04:33:57.319Z,23.95
2022-11-14T04:36:44.018Z,22.75
2022-11-14T04:39:30.308Z,22.98
2022-11-14T04:42:16.676Z,23.70
2022-11-14T04:45:03.284Z,24.83
2022-11-14T04:47:49.895Z,24.08
2022-11-14T04:50:37.953Z,23.20
2022-11-14T04:53:24.911Z,24.20
2022-11-14T04:56:11.620Z,22.33
2022-11-14T04:58:58.205Z,21.95
2022-11-14T05:01:44.764Z,21.52
2022-11-14T05:04:31.040Z,22.77
2022-11-14T05:07:18.873Z,21.95
2022-11-14T05:10:06.220Z,22.20
2022-11-14T05:12:54.305Z,21.58
2022-11-14T05:15:40.869Z,21.70
2022-11-14T05:18:27.672Z,22.63
2022-11-14T05:21:14.959Z,22.30
2022-11-14T05:24:02.708Z,22.85
2022-11-14T05:26:49.294Z,24.67
2022-11-14T05:29:35.721Z,21.73
2022-11-14T05:32:22.187Z,21.63
2022-11-14T05:35:09.687Z,21.17
2022-11-14T05:37:59.949Z,20.40
2022-11-14T05:40:47.800Z,20.77
2022-11-14T05:43:33.808Z,20.52
2022-11-14T05:46:20.160Z,20.25
2022-11-14T05:49:06.597Z,19.48
2022-11-14T05:51:53.152Z,19.15
2022-11-14T05:54:39.773Z,18.80
2022-11-14T05:57:27.676Z,19.02
2022-11-14T06:00:15.136Z,17.75
2022-11-14T06:03:01.784Z,18.13
2022-11-14T06:05:47.876Z,18.30
2022-11-14T06:08:35.380Z,17.88
2022-11-14T06:11:22.346Z,17.92
2022-11-14T06:14:11.254Z,19.20
2022-11-14T06:16:57.540Z,19.35
2022-11-14T06:19:43.971Z,19.65
2022-11-14T06:22:30.066Z,18.65
2022-11-14T06:25:16.605Z,19.65
2022-11-14T06:28:02.977Z,20.50
2022-11-14T06:30:50.790Z,22.13
2022-11-14T06:33:38.472Z,22.33
2022-11-14T06:36:25.105Z,23.35
2022-11-14T06:39:11.567Z,22.25
2022-11-14T06:41:58.419Z,23.05
2022-11-14T06:44:45.067Z,23.35
2022-11-14T06:47:33.393Z,23.95
2022-11-14T06:50:19.866Z,23.77
2022-11-14T06:53:06.154Z,23.65
2022-11-14T06:55:56.955Z,24.75
2022-11-14T06:58:45.541Z,21.17
2022-11-14T07:01:31.740Z,23.35
2022-11-14T07:04:19.614Z,20.95
2022-11-14T07:07:07.004Z,23.00
2022-11-14T07:09:54.270Z,20.10
2022-11-14T07:12:40.752Z,20.90
2022-11-14T07:15:27.281Z,20.15
2022-11-14T07:18:13.628Z,21.08
2022-11-14T07:21:03.407Z,21.05
2022-11-14T07:23:49.843Z,21.40
2022-11-14T07:26:36.245Z,23.67
2022-11-14T07:29:22.673Z,24.00
2022-11-14T07:32:09.293Z,24.80
2022-11-14T07:35:00.759Z,26.65
2022-11-14T07:37:50.568Z,27.45
2022-11-14T07:40:37.319Z,27.95
2022-11-14T07:43:24.168Z,28.63
2022-11-14T07:46:13.131Z,26.88
2022-11-14T07:48:59.156Z,30.73
2022-11-14T07:51:45.689Z,30.52
2022-11-14T07:54:34.283Z,26.00
2022-11-14T07:57:20.345Z,24.27
2022-11-14T08:00:07.695Z,24.13
2022-11-14T08:02:54.321Z,20.88
2022-11-14T08:05:40.752Z,19.75
2022-11-14T08:08:27.428Z,20.65
2022-11-14T08:11:31.674Z,20.52
2022-11-14T08:14:21.308Z,20.25
2022-11-14T08:17:07.987Z,20.08
2022-11-14T08:19:55.002Z,21.17
2022-11-14T08:22:41.153Z,20.45
2022-11-14T08:25:27.326Z,20.48
2022-11-14T08:28:15.287Z,19.73
2022-11-14T08:31:02.411Z,19.90
2022-11-14T08:33:50.415Z,19.40
2022-11-14T08:36:36.628Z,19.42
2022-11-14T08:39:23.447Z,20.27
2022-11-14T08:42:09.983Z,22.98
2022-11-14T08:44:57.653Z,21.08
2022-11-14T08:47:44.132Z,22.08
2022-11-14T08:50:31.826Z,20.92
2022-11-14T08:53:18.261Z,21.13
2022-11-14T08:56:05.560Z,21.13
2022-11-14T08:58:52.081Z,21.02
2022-11-14T09:01:39.957Z,19.60
2022-11-14T09:04:26.169Z,19.98
2022-11-14T09:07:13.003Z,18.45
2022-11-14T09:09:59.704Z,19.52
2022-11-14T09:12:45.997Z,18.73
2022-11-14T09:15:33.699Z,18.80
2022-11-14T09:18:21.477Z,18.83
2022-11-14T09:21:09.841Z,18.63
2022-11-14T09:24:00.555Z,20.40
2022-11-14T09:26:55.019Z,18.95
2022-11-14T09:29:42.746Z,19.42
2022-11-14T09:32:29.227Z,19.63
2022-11-14T09:35:17.637Z,18.38
2022-11-14T09:38:05.681Z,19.13
2022-11-14T09:41:03.354Z,18.95
2022-11-14T09:44:17.747Z,18.33
2022-11-14T09:47:16.664Z,18.60
2022-11-14T09:50:13.888Z,19.00
2022-11-14T09:53:06.463Z,18.27
2022-11-14T09:55:53.213Z,17.83
2022-11-14T09:58:39.302Z,16.92
2022-11-14T10:01:36.216Z,17.55
2022-11-14T10:04:33.025Z,19.05
2022-11-14T10:07:29.789Z,17.45
2022-11-14T10:10:38.883Z,19.55
2022-11-14T10:13:46.950Z,18.13
2022-11-14T10:16:44.495Z,17.75
2022-11-14T10:19:42.403Z,17.10
2022-11-14T10:22:46.761Z,18.77
2022-11-14T10:25:45.814Z,17.05
2022-11-14T10:28:42.989Z,17.55
2022-11-14T10:31:43.306Z,18.95
2022-11-14T10:34:35.403Z,18.33
2022-11-14T10:37:26.830Z,16.52
2022-11-14T10:40:20.316Z,17.27
2022-11-14T10:43:19.460Z,17.38
2022-11-14T10:46:11.343Z,17.55
2022-11-14T10:49:00.360Z,16.35
2022-11-14T10:51:51.106Z,15.75
2022-11-14T10:54:44.002Z,17.38
2022-11-14T10:57:31.050Z,16.10
2022-11-14T11:00:22.896Z,15.98
2022-11-14T11:03:09.185Z,15.98
2022-11-14T11:05:57.483Z,15.13
2022-11-14T11:09:00.669Z,15.00
2022-11-14T11:11:56.761Z,15.40
2022-11-14T11:14:43.681Z,14.88
2022-11-14T11:17:38.457Z,15.90
2022-11-14T11:20:33.899Z,15.82
2022-11-14T11:23:25.164Z,16.35
2022-11-14T11:26:18.707Z,16.88
2022-11-14T11:29:08.826Z,15.75
2022-11-14T11:31:56.531Z,16.27
2022-11-14T11:34:44.221Z,15.88
2022-11-14T11:37:34.011Z,16.02
2022-11-14T11:40:22.459Z,14.90
2022-11-14T11:46:27.232Z,16.13
2022-11-14T11:49:19.303Z,16.20
2022-11-14T11:52:14.085Z,15.80
2022-11-14T11:55:06.189Z,15.75
2022-11-14T11:58:00.860Z,15.50
2022-11-14T12:00:47.041Z,17.13
2022-11-14T12:03:33.806Z,17.83
2022-11-14T12:06:24.710Z,16.33
2022-11-14T12:09:19.002Z,17.25
2022-11-14T12:12:14.049Z,17.25
2022-11-14T12:15:12.220Z,17.50
2022-11-14T12:18:21.327Z,16.13
2022-11-14T12:21:13.377Z,15.93
2022-11-14T12:24:26.757Z,16.10
2022-11-14T12:27:24.490Z,15.43
2022-11-14T12:30:15.115Z,15.75
2022-11-14T12:33:05.744Z,15.98
2022-11-14T12:35:54.917Z,15.52
2022-11-14T12:38:49.109Z,14.57
2022-11-14T12:41:40.126Z,14.88
2022-11-14T12:44:36.120Z,15.45
2022-11-14T12:47:24.553Z,14.40
2022-11-14T12:50:41.861Z,14.77
2022-11-14T12:53:42.801Z,15.23
2022-11-14T12:57:09.922Z,14.82
2022-11-14T13:00:05.118Z,13.63
2022-11-14T13:03:11.950Z,14.05
2022-11-14T13:06:02.073Z,14.25
2022-11-14T13:09:16.196Z,13.70
2022-11-14T13:12:47.272Z,14.90
2022-11-14T13:15:52.835Z,14.68
2022-11-14T13:19:10.110Z,13.73
2022-11-14T13:22:36.445Z,14.38
2022-11-14T13:25:24.621Z,14.48
2022-11-14T13:28:48.683Z,13.77
2022-11-14T13:31:47.515Z,12.10
2022-11-14T13:34:47.176Z,11.38
2022-11-14T13:37:49.583Z,12.10
2022-11-14T13:40:43.519Z,10.95
2022-11-14T13:43:47.946Z,10.95
2022-11-14T13:46:51.395Z,10.15
2022-11-14T13:49:54.994Z,9.77
2022-11-14T13:52:44.621Z,10.07
2022-11-14T13:55:39.111Z,10.50
2022-11-14T13:58:37.674Z,9.35
2022-11-14T14:01:40.079Z,9.52
2022-11-14T14:04:45.988Z,8.98
2022-11-14T14:07:47.966Z,8.57
2022-11-14T14:10:43.034Z,9.18
2022-11-14T14:13:47.945Z,8.85
2022-11-14T14:16:42.682Z,9.88
2022-11-14T14:19:42.689Z,10.38
2022-11-14T14:22:37.475Z,10.95
2022-11-14T14:25:31.590Z,9.77
2022-11-14T14:28:25.886Z,11.38
2022-11-14T14:31:15.577Z,10.95
2022-11-14T14:34:02.171Z,10.65
2022-11-14T14:36:54.143Z,10.07
2022-11-14T14:39:40.160Z,11.00
2022-11-14T14:42:33.673Z,11.05
2022-11-14T14:45:23.353Z,10.88
2022-11-14T14:48:15.231Z,10.77
2022-11-14T14:51:05.352Z,10.85
2022-11-14T14:53:54.290Z,10.73
2022-11-14T14:56:41.041Z,11.48
2022-11-14T14:59:28.732Z,11.40
2022-11-14T15:02:18.993Z,11.40
2022-11-14T15:05:06.705Z,11.40
2022-11-14T15:07:54.875Z,12.20
2022-11-14T15:10:43.193Z,11.95
2022-11-14T15:13:31.586Z,11.90
2022-11-14T15:16:18.354Z,12.10
2022-11-14T15:19:05.938Z,12.05
2022-11-14T15:22:21.718Z,11.95
2022-11-14T15:25:20.484Z,12.90
2022-11-14T15:28:16.661Z,12.27
2022-11-14T15:31:05.019Z,12.65
2022-11-14T15:34:06.526Z,11.32
2022-11-14T15:37:23.405Z,11.13
2022-11-14T15:40:17.890Z,13.27
2022-11-14T15:43:38.998Z,12.25
2022-11-14T15:46:35.642Z,12.98
2022-11-14T15:49:25.126Z,12.68
2022-11-14T15:52:20.866Z,12.93
2022-11-14T15:55:14.750Z,12.60
2022-11-14T15:58:26.712Z,12.63
2022-11-14T16:01:17.961Z,11.25
2022-11-14T16:04:04.834Z,12.20
2022-11-14T16:06:51.161Z,12.38
2022-11-14T16:09:38.005Z,11.73
2022-11-14T16:12:24.363Z,12.70
2022-11-14T16:15:11.657Z,12.23
2022-11-14T16:17:59.407Z,12.82
2022-11-14T16:20:45.618Z,11.18
2022-11-14T16:23:31.975Z,12.63
2022-11-14T16:26:18.722Z,13.07
2022-11-14T16:29:05.363Z,12.02
2022-11-14T16:31:52.461Z,12.70
2022-11-14T16:34:40.248Z,12.00
2022-11-14T16:37:27.468Z,12.75
2022-11-14T16:40:15.651Z,12.77
2022-11-14T16:43:01.679Z,12.80
2022-11-14T16:45:48.480Z,13.40
2022-11-14T16:48:34.881Z,12.35
2022-11-14T16:51:47.054Z,13.35
2022-11-14T16:54:28.489Z,13.02
2022-11-14T16:57:15.153Z,14.43
2022-11-14T17:00:01.779Z,13.00
2022-11-14T17:02:48.228Z,12.80
2022-11-14T17:05:35.025Z,13.38
2022-11-14T17:08:22.682Z,12.40
2022-11-14T17:11:10.303Z,12.38
2022-11-14T17:13:57.283Z,12.85
2022-11-14T17:16:43.533Z,13.15
2022-11-14T17:19:30.706Z,12.77
2022-11-14T17:22:18.468Z,12.40
2022-11-14T17:25:06.912Z,12.45
2022-11-14T17:27:53.113Z,12.65
2022-11-14T17:30:41.948Z,12.43
2022-11-14T17:33:29.213Z,11.95
2022-11-14T17:36:16.149Z,12.95
2022-11-14T17:39:02.554Z,12.88
2022-11-14T17:41:50.498Z,13.07
2022-11-14T17:44:37.079Z,12.60
2022-11-14T17:47:23.062Z,12.38
2022-11-14T17:50:10.484Z,12.57
2022-11-14T17:52:57.005Z,12.07
2022-11-14T17:55:43.340Z,13.13
2022-11-14T17:58:32.971Z,12.48
2022-11-14T18:01:22.515Z,12.63
2022-11-14T18:04:08.834Z,13.35
2022-11-14T18:06:55.752Z,11.68
2022-11-14T18:09:42.285Z,12.02
2022-11-14T18:12:28.678Z,13.00
2022-11-14T18:15:16.918Z,12.27
2022-11-14T18:18:03.167Z,12.52
2022-11-14T18:20:49.505Z,13.65
2022-11-14T18:23:36.517Z,13.25
2022-11-14T18:26:27.433Z,12.38
2022-11-14T18:29:15.534Z,13.50
2022-11-14T18:32:04.025Z,12.30
2022-11-14T18:34:50.482Z,12.43
2022-11-14T18:37:36.788Z,12.75
2022-11-14T18:40:23.016Z,12.90
2022-11-14T18:43:09.674Z,13.23
2022-11-14T18:45:56.380Z,12.77
2022-11-14T18:48:45.888Z,11.55
2022-11-14T18:51:33.446Z,12.85
2022-11-14T18:54:20.033Z,12.85
2022-11-14T18:57:07.031Z,12.77
2022-11-14T18:59:53.185Z,13.05
2022-11-14T19:02:39.895Z,11.55
2022-11-14T19:05:27.803Z,12.48
2022-11-14T19:08:14.222Z,12.30
2022-11-14T19:11:04.593Z,12.45
2022-11-14T19:13:50.995Z,12.05
2022-11-14T19:16:38.739Z,12.70
2022-11-14T19:19:26.218Z,13.50
2022-11-14T19:22:14.162Z,12.82
2022-11-14T19:25:02.561Z,12.50
2022-11-14T19:27:51.443Z,12.68
2022-11-14T19:30:38.306Z,13.25
2022-11-14T19:33:24.726Z,13.15
2022-11-14T19:36:14.473Z,13.07
2022-11-14T19:39:02.846Z,13.18
2022-11-14T19:41:49.737Z,13.75
2022-11-14T19:44:35.968Z,12.88
2022-11-14T19:47:22.574Z,12.30
2022-11-14T19:50:10.178Z,13.15
2022-11-14T19:52:56.351Z,12.10
2022-11-14T19:55:44.001Z,13.10
2022-11-14T19:58:30.553Z,12.25
2022-11-14T20:01:19.529Z,12.82
2022-11-14T20:04:07.425Z,13.52
2022-11-14T20:06:54.392Z,12.50
2022-11-14T20:09:40.899Z,13.05
2022-11-14T20:12:28.707Z,12.27
2022-11-14T20:15:15.189Z,19.42
2022-11-14T20:18:01.503Z,13.60
2022-11-14T20:20:48.198Z,13.45
2022-11-14T20:23:35.850Z,12.27
2022-11-14T20:26:23.166Z,13.40
2022-11-14T20:29:10.997Z,39.13
2022-11-14T20:31:57.508Z,19.92
2022-11-14T20:34:44.305Z,13.45
2022-11-14T20:37:30.842Z,13.25
2022-11-14T20:40:17.416Z,12.55
2022-11-14T20:43:04.101Z,11.93
2022-11-14T20:45:59.944Z,17.27
2022-11-14T20:48:47.772Z,18.52
2022-11-14T20:51:36.606Z,14.70
2022-11-14T20:54:25.105Z,14.00
2022-11-14T20:57:11.974Z,13.05
2022-11-14T20:59:58.277Z,22.40
2022-11-14T21:02:46.004Z,13.45
2022-11-14T21:05:32.361Z,12.63
2022-11-14T21:08:18.889Z,11.93
2022-11-14T21:11:07.401Z,12.38
2022-11-14T21:13:59.683Z,12.18
2022-11-14T21:16:46.327Z,13.52
2022-11-14T21:19:33.845Z,12.80
2022-11-14T21:22:20.239Z,12.75
2022-11-14T21:25:07.498Z,12.95
2022-11-14T21:27:54.028Z,13.43
2022-11-14T21:30:40.343Z,12.95
2022-11-14T21:33:27.179Z,13.63
2022-11-14T21:36:43.114Z,14.23
2022-11-14T21:39:22.112Z,15.30
2022-11-14T21:42:11.017Z,14.85
2022-11-14T21:45:00.623Z,14.00
2022-11-14T21:47:46.644Z,13.13
2022-11-14T21:50:33.879Z,13.43
2022-11-14T21:53:21.617Z,12.23
2022-11-14T21:56:09.294Z,13.00
2022-11-14T21:59:12.758Z,12.10
2022-11-14T22:02:16.645Z,11.93
2022-11-14T22:05:03.389Z,13.25
2022-11-14T22:07:49.905Z,11.35
2022-11-14T22:10:37.361Z,11.27
2022-11-14T22:13:23.592Z,11.18
2022-11-14T22:16:11.470Z,10.60
2022-11-14T22:19:04.482Z,11.00
2022-11-14T22:21:51.801Z,11.35
2022-11-14T22:24:38.061Z,11.23
2022-11-14T22:27:25.762Z,10.65
2022-11-14T22:30:12.948Z,10.68
2022-11-14T22:33:00.400Z,11.35
2022-11-14T22:35:47.154Z,10.55
2022-11-14T22:38:36.517Z,11.52
2022-11-14T22:41:29.126Z,11.20
2022-11-14T22:44:19.634Z,10.60
2022-11-14T22:47:06.219Z,10.00
2022-11-14T22:49:52.474Z,10.40
2022-11-14T22:52:39.874Z,10.50
2022-11-14T22:55:26.373Z,10.27
2022-11-14T22:58:12.375Z,10.00
2022-11-14T23:01:00.475Z,9.68
2022-11-14T23:03:48.303Z,9.98
2022-11-14T23:06:35.403Z,10.45
2022-11-14T23:09:21.797Z,9.95
2022-11-14T23:12:08.096Z,9.63
2022-11-14T23:14:54.197Z,9.82
2022-11-14T23:17:41.687Z,9.32
2022-11-14T23:20:28.718Z,9.20
2022-11-14T23:23:15.763Z,9.82
2022-11-14T23:26:05.528Z,9.02
2022-11-14T23:28:51.793Z,9.68
2022-11-14T23:31:37.947Z,8.82
2022-11-14T23:34:25.542Z,9.57
2022-11-14T23:37:11.777Z,9.50
2022-11-14T23:39:57.790Z,10.13
2022-11-14T23:42:43.990Z,9.15
2022-11-14T23:45:30.294Z,9.80
2022-11-14T23:48:16.844Z,9.07
2022-11-14T23:51:04.805Z,9.27
2022-11-14T23:53:51.899Z,8.95
2022-11-14T23:56:38.456Z,9.55
2022-11-14T23:59:25.519Z,9.20
